Flight Track Log - Related Links

Times and Time Zones

All times are in EDT time to prevent confusion due to time zone crossing. See the MTN8308 flight status page for this flight to view local times or setup timezone preferences in your user account.

Time Position Orientation Groundspeed Altitude Reporting Facility
EDT Latitude Longitude Course Direction KTS MPH feet Rate Location/Type
Tue 03:18:15 AM 40.7000 -74.1667 270° West 84 97 800  Level New York TRACON
Tue 03:19:15 AM 40.7000 -74.1833 270° West 94 108 1,400 550 Climbing New York TRACON
Tue 03:20:15 AM 40.7000 -74.2333 270° West 114 131 1,900 600 Climbing New York TRACON
Tue 03:21:15 AM 40.7000 -74.2667 270° West 115 132 2,600 632 Climbing New York TRACON
Tue 03:22:09 AM 40.6833 -74.3000 237° Southwest 122 140 3,100 632 Climbing New York TRACON
Tue 03:23:09 AM 40.6833 -74.3500 270° West 123 142 3,800 83 Climbing New York TRACON
Tue 03:25:00 AM 40.6333 -74.4074 270° West  Level FlightAware Approximate
Tue 03:32:00 AM 40.6865 -74.7817 276° West  Level FlightAware Approximate
Tue 03:33:00 AM 40.6919 -74.8355 278° West  Level FlightAware Approximate
Tue 03:33:02 AM 40.5833 -74.9167 272° West 166 191 4,000  Level Philadelphia TRACON
Tue 03:34:00 AM 40.6973 -74.8894 278° West  Level FlightAware Approximate
Tue 03:34:08 AM 40.5667 -74.9833 252° West 167 192 4,000  Level Philadelphia TRACON
Tue 03:35:00 AM 40.7009 -74.9436 273° West  Level FlightAware Approximate
Tue 03:35:08 AM 40.5333 -75.0333 229° Southwest 180 207 4,000  Level Philadelphia TRACON
Tue 03:36:00 AM 40.7027 -74.9978 273° West  Level FlightAware Approximate
Tue 03:36:08 AM 40.5000 -75.0667 217° Southwest 176 203 4,000  Level Philadelphia TRACON
Tue 03:37:00 AM 40.7045 -75.0521 272° West  Level FlightAware Approximate
Tue 03:37:08 AM 40.4667 -75.1167 229° Southwest 176 203 4,000  Level Philadelphia TRACON
Tue 03:38:00 AM 40.7062 -75.1064 272° West  Level FlightAware Approximate
Tue 03:38:08 AM 40.4167 -75.1500 207° Southwest 175 201 4,000  Level Philadelphia TRACON
Tue 03:39:08 AM 40.3833 -75.1833 217° Southwest 174 200 4,000  Level Philadelphia TRACON
Tue 03:40:08 AM 40.3500 -75.2333 229° Southwest 173 199 4,000  Level Philadelphia TRACON
Tue 03:41:09 AM 40.3167 -75.2667 217° Southwest 174 200 4,000  Level Philadelphia TRACON
Tue 03:42:09 AM 40.2833 -75.3000 217° Southwest 171 197 4,000  Level Philadelphia TRACON
Tue 03:43:09 AM 40.2333 -75.3500 217° Southwest 170 196 4,000  Level Philadelphia TRACON
Tue 03:44:09 AM 40.2000 -75.3833 217° Southwest 170 196 4,000  Level Philadelphia TRACON
Tue 03:45:09 AM 40.1667 -75.4167 217° Southwest 173 199 4,000  Level Philadelphia TRACON
Tue 03:46:09 AM 40.1333 -75.4667 229° Southwest 170 196 4,000  Level Philadelphia TRACON
Tue 03:47:09 AM 40.0833 -75.5000 207° Southwest 171 197 4,000  Level Philadelphia TRACON
Tue 03:48:09 AM 40.0500 -75.5333 217° Southwest 173 199 4,000  Level Philadelphia TRACON
Tue 03:49:09 AM 40.0167 -75.5833 229° Southwest 169 194 4,000  Level Philadelphia TRACON
Tue 03:50:09 AM 39.9667 -75.6167 207° Southwest 172 198 4,000  Level Philadelphia TRACON
Tue 03:51:09 AM 39.9333 -75.6500 217° Southwest 168 193 4,000  Level Philadelphia TRACON
Tue 03:52:09 AM 39.9000 -75.7000 229° Southwest 165 190 4,000  Level Philadelphia TRACON
Tue 03:53:09 AM 39.8667 -75.7333 218° Southwest 165 190 4,000  Level Philadelphia TRACON
Tue 03:54:09 AM 39.8333 -75.7833 229° Southwest 165 190 4,000  Level Philadelphia TRACON
Tue 03:55:47 AM 39.8000 -75.8500 237° Southwest 165 190 4,000  Level Potomac TRACON
Tue 03:56:42 AM 39.7667 -75.8833 218° Southwest 164 189 4,000  Level Potomac TRACON
Tue 03:57:42 AM 39.7333 -75.9333 229° Southwest 162 186 4,000  Level Potomac TRACON
Tue 03:58:42 AM 39.7000 -75.9667 218° Southwest 164 189 4,000  Level Potomac TRACON
Tue 03:59:42 AM 39.6667 -76.0167 229° Southwest 165 190 4,000  Level Potomac TRACON
Tue 04:00:43 AM 39.6333 -76.0500 218° Southwest 164 189 4,000  Level Potomac TRACON
Tue 04:01:43 AM 39.6000 -76.1000 229° Southwest 163 188 4,000  Level Potomac TRACON
Tue 04:02:43 AM 39.5667 -76.1333 218° Southwest 163 188 4,000  Level Potomac TRACON
Tue 04:03:43 AM 39.5333 -76.1833 229° Southwest 161 185 4,000  Level Potomac TRACON
Tue 04:04:37 AM 39.5167 -76.2167 237° Southwest 160 184 4,000  Level Potomac TRACON
Tue 04:05:43 AM 39.4833 -76.2667 229° Southwest 162 186 4,000 -100 Level Potomac TRACON
Tue 04:06:37 AM 39.4500 -76.3000 218° Southwest 166 191 3,800 -263 Descending Potomac TRACON
Tue 04:07:37 AM 39.4167 -76.3500 229° Southwest 170 196 3,500 -300 Descending Potomac TRACON
Tue 04:08:37 AM 39.3833 -76.3833 218° Southwest 170 196 3,200 -250 Descending Potomac TRACON
Tue 04:09:37 AM 39.3500 -76.4333 229° Southwest 172 198 3,000 -100 Descending Potomac TRACON
Tue 04:10:37 AM 39.3167 -76.4667 218° Southwest 167 192 3,000  Level Potomac TRACON
Tue 04:11:37 AM 39.2833 -76.5167 229° Southwest 163 188 3,000 -150 Level Potomac TRACON
Tue 04:12:37 AM 39.2500 -76.5500 218° Southwest 159 183 2,700 -550 Descending Potomac TRACON
Tue 04:13:37 AM 39.2167 -76.5833 218° Southwest 170 196 1,900 -900 Descending Potomac TRACON
Tue 04:14:37 AM 39.1833 -76.6333 229° Southwest 170 196 900 -1,000 Descending Potomac TRACON

Login

Don't have an account? Register now (free) for customized features, flight alerts, and more!